createdAt,value
2018-12-13T00:02:15.882Z,9.03
2018-12-13T00:04:43.404Z,9.10
2018-12-13T00:07:11.249Z,9.57
2018-12-13T00:09:38.805Z,9.63
2018-12-13T00:12:06.393Z,9.33
2018-12-13T00:14:34.246Z,9.23
2018-12-13T00:17:01.775Z,8.60
2018-12-13T00:19:29.310Z,9.60
2018-12-13T00:21:56.942Z,9.40
2018-12-13T00:24:24.676Z,8.97
2018-12-13T00:26:52.226Z,9.13
2018-12-13T00:29:20.050Z,8.73
2018-12-13T00:31:47.711Z,8.47
2018-12-13T00:34:15.291Z,8.10
2018-12-13T00:36:43.052Z,9.43
2018-12-13T00:39:10.611Z,9.63
2018-12-13T00:41:38.173Z,8.33
2018-12-13T00:44:06.031Z,8.53
2018-12-13T00:46:33.613Z,8.40
2018-12-13T00:49:01.186Z,8.97
2018-12-13T00:51:28.746Z,9.70
2018-12-13T00:53:56.359Z,8.80
2018-12-13T00:56:24.274Z,8.13
2018-12-13T00:58:51.844Z,9.87
2018-12-13T01:01:19.488Z,7.87
2018-12-13T01:03:47.032Z,8.23
2018-12-13T01:06:14.629Z,8.63
2018-12-13T01:08:42.187Z,9.10
2018-12-13T01:11:09.760Z,9.03
2018-12-13T01:13:37.429Z,9.20
2018-12-13T01:16:07.048Z,9.83
2018-12-13T01:18:34.687Z,8.63
2018-12-13T01:21:02.261Z,8.67
2018-12-13T01:23:29.822Z,8.73
2018-12-13T01:25:57.408Z,8.97
2018-12-13T01:28:25.238Z,8.97
2018-12-13T01:30:52.882Z,8.47
2018-12-13T01:33:20.471Z,8.80
2018-12-13T01:35:48.110Z,9.90
2018-12-13T01:38:15.645Z,8.50
2018-12-13T01:40:43.205Z,9.40
2018-12-13T01:43:10.810Z,8.47
2018-12-13T01:45:38.412Z,8.33
2018-12-13T01:48:05.998Z,9.23
2018-12-13T01:50:33.631Z,9.30
2018-12-13T01:53:01.222Z,8.70
2018-12-13T01:55:28.906Z,9.13
2018-12-13T01:57:56.493Z,8.03
2018-12-13T02:00:24.034Z,9.03
2018-12-13T02:02:51.875Z,8.80
2018-12-13T02:05:19.431Z,8.40
2018-12-13T02:07:47.080Z,9.50
2018-12-13T02:10:14.685Z,9.13
2018-12-13T02:12:42.248Z,8.53
2018-12-13T02:15:09.815Z,9.03
2018-12-13T02:17:37.680Z,8.97
2018-12-13T02:20:05.442Z,9.67
2018-12-13T02:22:32.978Z,9.00
2018-12-13T02:25:00.572Z,8.40
2018-12-13T02:27:28.260Z,9.10
2018-12-13T02:29:56.238Z,9.10
2018-12-13T02:32:23.783Z,9.03
2018-12-13T02:34:51.336Z,9.27
2018-12-13T02:37:19.479Z,9.30
2018-12-13T02:39:47.053Z,9.10
2018-12-13T02:42:15.231Z,9.20
2018-12-13T02:44:42.786Z,8.37
2018-12-13T02:47:10.442Z,9.20
2018-12-13T02:49:38.082Z,9.70
2018-12-13T02:52:05.784Z,10.03
2018-12-13T02:54:33.321Z,9.10
2018-12-13T02:57:00.906Z,9.73
2018-12-13T02:59:28.503Z,9.87
2018-12-13T03:01:56.027Z,9.17
2018-12-13T03:04:23.600Z,9.43
2018-12-13T03:06:51.230Z,9.17
2018-12-13T03:09:18.804Z,10.37
2018-12-13T03:11:46.621Z,9.10
2018-12-13T03:14:14.153Z,9.73
2018-12-13T03:16:41.850Z,9.60
2018-12-13T03:19:09.671Z,9.63
2018-12-13T03:21:37.381Z,10.03
2018-12-13T03:24:04.927Z,8.30
2018-12-13T03:26:32.494Z,8.70
2018-12-13T03:29:00.161Z,8.67
2018-12-13T03:31:27.725Z,8.70
2018-12-13T03:33:55.248Z,10.37
2018-12-13T03:36:23.031Z,8.90
2018-12-13T03:38:50.679Z,8.70
2018-12-13T03:41:18.256Z,9.10
2018-12-13T03:43:45.799Z,9.10
2018-12-13T03:46:13.358Z,9.03
2018-12-13T03:48:40.949Z,9.10
2018-12-13T03:51:08.587Z,8.83
2018-12-13T03:53:36.155Z,8.37
2018-12-13T03:56:03.679Z,8.53
2018-12-13T03:58:31.396Z,8.53
2018-12-13T04:00:58.952Z,8.20
2018-12-13T04:03:26.482Z,8.30
2018-12-13T04:05:54.097Z,9.60
2018-12-13T04:08:21.604Z,9.03
2018-12-13T04:10:49.162Z,8.30
2018-12-13T04:13:16.997Z,7.80
2018-12-13T04:15:44.591Z,8.50
2018-12-13T04:18:12.213Z,8.53
2018-12-13T04:20:39.855Z,8.60
2018-12-13T04:23:07.378Z,9.57
2018-12-13T04:25:34.918Z,9.03
2018-12-13T04:28:02.901Z,9.23
2018-12-13T04:30:30.485Z,8.67
2018-12-13T04:32:57.999Z,8.10
2018-12-13T04:35:25.756Z,8.60
2018-12-13T04:37:53.306Z,8.23
2018-12-13T04:40:20.927Z,8.30
2018-12-13T04:42:48.506Z,7.93
2018-12-13T04:45:16.043Z,7.30
2018-12-13T04:47:43.557Z,7.67
2018-12-13T04:50:11.411Z,7.17
2018-12-13T04:52:38.965Z,6.70
2018-12-13T04:55:06.592Z,6.17
2018-12-13T04:57:34.434Z,6.30
2018-12-13T05:00:01.976Z,5.97
2018-12-13T05:02:29.597Z,5.43
2018-12-13T05:04:57.146Z,4.60
2018-12-13T05:07:24.769Z,4.60
2018-12-13T05:09:52.317Z,5.00
2018-12-13T05:12:20.191Z,5.50
2018-12-13T05:14:47.747Z,5.80
2018-12-13T05:17:15.518Z,5.50
2018-12-13T05:19:43.059Z,5.20
2018-12-13T05:22:10.969Z,4.60
2018-12-13T05:24:38.507Z,4.67
2018-12-13T05:27:06.042Z,4.97
2018-12-13T05:29:34.162Z,5.67
2018-12-13T05:32:01.701Z,5.20
2018-12-13T05:34:29.298Z,5.73
2018-12-13T05:36:56.855Z,5.47
2018-12-13T05:39:24.394Z,6.50
2018-12-13T05:41:51.984Z,6.20
2018-12-13T05:44:20.791Z,6.17
2018-12-13T05:46:48.356Z,6.57
2018-12-13T05:49:15.892Z,7.73
2018-12-13T05:51:43.492Z,7.00
2018-12-13T05:54:11.044Z,6.00
2018-12-13T05:56:38.602Z,7.00
2018-12-13T05:59:06.190Z,6.23
2018-12-13T06:01:33.724Z,6.50
2018-12-13T06:04:01.395Z,5.67
2018-12-13T06:06:28.933Z,7.43
2018-12-13T06:08:56.526Z,6.30
2018-12-13T06:11:24.077Z,6.30
2018-12-13T06:13:51.630Z,6.47
2018-12-13T06:16:19.160Z,5.90
2018-12-13T06:18:46.685Z,5.83
2018-12-13T06:21:14.385Z,5.80
2018-12-13T06:23:41.918Z,5.73
2018-12-13T06:26:09.882Z,6.10
2018-12-13T06:28:37.433Z,6.80
2018-12-13T06:31:05.035Z,6.80
2018-12-13T06:33:32.991Z,6.07
2018-12-13T06:36:00.646Z,6.90
2018-12-13T06:38:28.218Z,6.80
2018-12-13T06:40:55.890Z,5.87
2018-12-13T06:43:23.620Z,6.10
2018-12-13T06:48:25.011Z,7.10
2018-12-13T06:50:52.571Z,7.13
2018-12-13T06:53:20.276Z,6.30
2018-12-13T06:55:47.902Z,6.90
2018-12-13T06:58:15.444Z,7.20
2018-12-13T07:00:43.980Z,6.43
2018-12-13T07:03:11.546Z,6.93
2018-12-13T07:05:39.069Z,6.90
2018-12-13T07:08:07.971Z,7.33
2018-12-13T07:10:35.940Z,6.60
2018-12-13T07:13:03.477Z,7.30
2018-12-13T07:15:31.030Z,7.77
2018-12-13T07:17:58.634Z,6.83
2018-12-13T07:20:26.396Z,7.60
2018-12-13T07:22:53.980Z,7.03
2018-12-13T07:25:21.515Z,7.00
2018-12-13T07:27:49.103Z,7.97
2018-12-13T07:30:16.655Z,7.27
2018-12-13T07:32:44.233Z,6.50
2018-12-13T07:35:11.854Z,6.87
2018-12-13T07:37:39.385Z,6.80
2018-12-13T07:40:07.734Z,7.13
2018-12-13T07:42:35.383Z,7.43
2018-12-13T07:45:03.086Z,7.50
2018-12-13T07:47:30.640Z,7.47
2018-12-13T07:49:58.205Z,7.40
2018-12-13T07:52:25.751Z,6.97
2018-12-13T07:54:53.293Z,7.53
2018-12-13T07:57:20.806Z,6.37
2018-12-13T07:59:48.357Z,7.40
2018-12-13T08:02:15.911Z,6.93
2018-12-13T08:04:43.514Z,7.13
2018-12-13T08:07:11.082Z,8.53
2018-12-13T08:09:38.792Z,6.23
2018-12-13T08:12:06.350Z,7.23
2018-12-13T08:14:33.890Z,7.43
2018-12-13T08:17:01.436Z,7.60
2018-12-13T08:19:29.031Z,7.40
2018-12-13T08:21:56.545Z,7.20
2018-12-13T08:24:24.111Z,7.47
2018-12-13T08:26:51.668Z,7.93
2018-12-13T08:29:19.216Z,7.70
2018-12-13T08:31:47.074Z,8.30
2018-12-13T08:34:14.612Z,8.07
2018-12-13T08:36:42.155Z,9.07
2018-12-13T08:39:10.067Z,7.30
2018-12-13T08:41:38.097Z,8.73
2018-12-13T08:44:06.846Z,9.60
2018-12-13T08:46:36.674Z,10.50
2018-12-13T08:49:04.006Z,8.27
2018-12-13T08:51:31.605Z,8.70
2018-12-13T08:53:59.155Z,8.40
2018-12-13T08:56:26.713Z,8.37
2018-12-13T08:58:54.317Z,8.50
2018-12-13T09:01:21.853Z,8.50
2018-12-13T09:03:49.400Z,8.83
2018-12-13T09:06:16.994Z,9.33
2018-12-13T09:08:44.526Z,8.43
2018-12-13T09:11:12.097Z,8.80
2018-12-13T09:13:39.669Z,9.30
2018-12-13T09:16:07.206Z,9.33
2018-12-13T09:18:34.761Z,8.80
2018-12-13T09:21:02.302Z,8.57
2018-12-13T09:23:29.946Z,8.67
2018-12-13T09:25:57.597Z,9.13
2018-12-13T09:28:25.142Z,9.33
2018-12-13T09:30:53.705Z,7.67
2018-12-13T09:33:21.278Z,9.07
2018-12-13T09:35:48.814Z,9.47
2018-12-13T09:38:16.467Z,8.87
2018-12-13T09:40:44.265Z,8.53
2018-12-13T09:43:11.830Z,8.37
2018-12-13T09:45:39.390Z,9.80
2018-12-13T09:48:06.950Z,8.57
2018-12-13T09:50:34.581Z,8.47
2018-12-13T09:53:02.249Z,8.80
2018-12-13T09:55:29.874Z,8.50
2018-12-13T09:57:57.532Z,8.47
2018-12-13T10:00:25.190Z,8.50
2018-12-13T10:02:52.753Z,8.23
2018-12-13T10:05:20.342Z,7.90
2018-12-13T10:07:48.034Z,9.00
2018-12-13T10:10:15.968Z,9.90
2018-12-13T10:12:43.567Z,8.00
2018-12-13T10:15:11.084Z,8.20
2018-12-13T10:17:38.647Z,9.43
2018-12-13T10:20:06.239Z,9.17
2018-12-13T10:22:33.769Z,9.50
2018-12-13T10:25:01.309Z,9.77
2018-12-13T10:27:28.858Z,8.73
2018-12-13T10:29:56.498Z,8.17
2018-12-13T10:32:24.053Z,7.47
2018-12-13T10:34:51.614Z,8.73
2018-12-13T10:37:19.275Z,8.23
2018-12-13T10:39:46.835Z,7.70
2018-12-13T10:42:14.404Z,8.97
2018-12-13T10:44:41.990Z,8.53
2018-12-13T10:47:09.525Z,8.33
2018-12-13T10:49:37.137Z,9.27
2018-12-13T10:52:05.030Z,7.90
2018-12-13T10:54:32.586Z,8.77
2018-12-13T10:57:00.119Z,8.50
2018-12-13T10:59:27.669Z,9.53
2018-12-13T11:02:01.567Z,9.10
2018-12-13T11:04:29.175Z,8.50
2018-12-13T11:06:56.749Z,7.83
2018-12-13T11:09:24.564Z,8.03
2018-12-13T11:11:52.092Z,8.60
2018-12-13T11:14:19.593Z,8.90
2018-12-13T11:16:47.142Z,8.90
2018-12-13T11:19:14.876Z,8.00
2018-12-13T11:21:42.798Z,7.73
2018-12-13T11:24:10.338Z,8.93
2018-12-13T11:26:38.030Z,8.63
2018-12-13T11:29:20.855Z,8.53
2018-12-13T11:31:48.417Z,8.40
2018-12-13T11:34:15.976Z,9.00
2018-12-13T11:36:43.943Z,8.37
2018-12-13T11:39:11.486Z,7.93
2018-12-13T11:41:39.030Z,8.33
2018-12-13T11:44:06.605Z,8.53
2018-12-13T11:46:34.160Z,8.33
2018-12-13T11:49:01.735Z,8.30
2018-12-13T11:51:29.434Z,7.53
2018-12-13T11:53:57.061Z,8.07
2018-12-13T11:56:24.694Z,7.80
2018-12-13T11:58:52.272Z,7.97
2018-12-13T12:01:19.795Z,8.37
2018-12-13T12:03:47.343Z,9.13
2018-12-13T12:06:15.837Z,8.13
2018-12-13T12:08:43.388Z,7.67
2018-12-13T12:11:10.945Z,9.23
2018-12-13T12:13:39.476Z,7.87
2018-12-13T12:16:07.122Z,7.77
2018-12-13T12:18:34.662Z,8.97
2018-12-13T12:21:02.558Z,8.90
2018-12-13T12:23:30.128Z,8.27
2018-12-13T12:25:57.701Z,8.70
2018-12-13T12:28:25.557Z,8.80
2018-12-13T12:30:54.047Z,8.63
2018-12-13T12:33:21.630Z,7.50
2018-12-13T12:35:49.342Z,8.40
2018-12-13T12:38:16.894Z,7.50
2018-12-13T12:40:44.436Z,7.90
2018-12-13T12:43:11.983Z,8.47
2018-12-13T12:45:39.567Z,7.20
2018-12-13T12:48:07.111Z,7.73
2018-12-13T12:50:34.728Z,7.97
2018-12-13T12:53:02.319Z,9.47
2018-12-13T12:55:29.947Z,8.20
2018-12-13T12:57:57.467Z,7.80
2018-12-13T13:00:25.034Z,8.30
2018-12-13T13:02:52.861Z,8.07
2018-12-13T13:05:20.396Z,8.33
2018-12-13T13:07:47.950Z,8.47
2018-12-13T13:10:15.484Z,7.37
2018-12-13T13:12:43.051Z,8.03
2018-12-13T13:15:10.621Z,7.93
2018-12-13T13:17:38.153Z,8.50
2018-12-13T13:20:05.854Z,7.97
2018-12-13T13:22:33.569Z,7.50
2018-12-13T13:25:01.296Z,8.90
2018-12-13T13:27:28.953Z,8.33
2018-12-13T13:29:56.612Z,8.70
2018-12-13T13:32:24.599Z,7.83
2018-12-13T13:34:52.135Z,8.30
2018-12-13T13:37:19.703Z,7.23
2018-12-13T13:39:47.601Z,9.40
2018-12-13T13:42:15.146Z,8.10
2018-12-13T13:44:42.889Z,7.83
2018-12-13T13:47:10.544Z,8.73
2018-12-13T13:49:38.156Z,8.80
2018-12-13T13:52:05.776Z,7.53
2018-12-13T13:54:33.299Z,8.30
2018-12-13T13:57:00.966Z,8.73
2018-12-13T13:59:28.581Z,7.87
2018-12-13T14:01:56.276Z,8.83
2018-12-13T14:04:23.953Z,8.80
2018-12-13T14:06:51.513Z,8.97
2018-12-13T14:09:19.081Z,9.40
2018-12-13T14:11:46.835Z,8.00
2018-12-13T14:14:14.426Z,9.20
2018-12-13T14:16:42.008Z,9.03
2018-12-13T14:19:09.536Z,9.60
2018-12-13T14:21:37.138Z,9.70
2018-12-13T14:24:04.782Z,10.13
2018-12-13T14:26:32.341Z,8.90
2018-12-13T14:29:00.015Z,8.03
2018-12-13T14:31:27.676Z,8.63
2018-12-13T14:33:55.369Z,9.70
2018-12-13T14:36:23.031Z,9.73
2018-12-13T14:38:50.586Z,8.90
2018-12-13T14:41:18.159Z,7.57
2018-12-13T14:43:45.804Z,9.03
2018-12-13T14:46:13.351Z,9.30
2018-12-13T14:48:40.909Z,7.60
2018-12-13T14:51:08.504Z,8.80
2018-12-13T14:53:36.046Z,8.57
2018-12-13T14:56:03.628Z,8.77
2018-12-13T14:58:31.203Z,8.70
2018-12-13T15:00:58.843Z,8.60
2018-12-13T15:03:26.383Z,9.30
2018-12-13T15:05:54.091Z,8.67
2018-12-13T15:08:21.643Z,8.93
2018-12-13T15:10:49.231Z,8.77
2018-12-13T15:13:16.775Z,9.07
2018-12-13T15:15:44.383Z,7.40
2018-12-13T15:18:11.900Z,9.27
2018-12-13T15:20:39.469Z,7.30
2018-12-13T15:23:07.039Z,9.57
2018-12-13T15:25:34.664Z,9.53
2018-12-13T15:28:02.193Z,9.20
2018-12-13T15:30:29.861Z,8.63
2018-12-13T15:32:57.390Z,10.47
2018-12-13T15:35:24.990Z,10.27
2018-12-13T15:37:52.539Z,11.60
2018-12-13T15:40:20.196Z,11.87
2018-12-13T15:42:47.718Z,13.00
2018-12-13T15:45:15.469Z,12.27
2018-12-13T15:47:43.025Z,10.20
2018-12-13T15:50:10.651Z,10.17
2018-12-13T15:52:38.209Z,10.17
2018-12-13T15:55:05.888Z,9.17
2018-12-13T15:57:33.456Z,9.17
2018-12-13T16:00:01.985Z,11.00
2018-12-13T16:02:29.714Z,9.83
2018-12-13T16:04:57.259Z,9.70
2018-12-13T16:07:24.840Z,11.67
2018-12-13T16:09:52.385Z,9.57
2018-12-13T16:12:19.969Z,10.57
2018-12-13T16:14:47.768Z,12.43
2018-12-13T16:17:15.364Z,13.40
2018-12-13T16:19:42.898Z,12.07
2018-12-13T16:22:10.460Z,12.83
2018-12-13T16:24:38.167Z,11.80
2018-12-13T16:27:05.751Z,11.20
2018-12-13T16:29:33.385Z,11.50
2018-12-13T16:32:01.101Z,9.97
2018-12-13T16:34:28.640Z,10.63
2018-12-13T16:36:56.175Z,9.07
2018-12-13T16:39:23.722Z,10.30
2018-12-13T16:41:51.367Z,12.27
2018-12-13T16:44:18.986Z,10.37
2018-12-13T16:46:46.589Z,9.17
2018-12-13T16:49:14.191Z,8.70
2018-12-13T16:51:41.702Z,9.10
2018-12-13T16:54:09.254Z,10.17
2018-12-13T16:56:36.851Z,10.80
2018-12-13T16:59:04.409Z,10.60
2018-12-13T17:01:32.190Z,10.40
2018-12-13T17:03:59.754Z,9.17
2018-12-13T17:06:27.281Z,10.47
2018-12-13T17:08:54.908Z,9.50
2018-12-13T17:11:22.696Z,10.90
2018-12-13T17:13:50.405Z,10.40
2018-12-13T17:16:17.932Z,10.00
2018-12-13T17:18:45.545Z,9.00
2018-12-13T17:21:13.103Z,9.20
2018-12-13T17:23:40.689Z,8.67
2018-12-13T17:26:08.234Z,9.77
2018-12-13T17:28:35.949Z,8.67
2018-12-13T17:31:03.596Z,11.57
2018-12-13T17:33:31.160Z,10.27
2018-12-13T17:35:59.645Z,10.53
2018-12-13T17:38:27.324Z,10.83
2018-12-13T17:40:54.876Z,11.47
2018-12-13T17:43:22.406Z,9.60
2018-12-13T17:45:49.999Z,9.53
2018-12-13T17:48:17.538Z,10.80
2018-12-13T17:50:45.149Z,10.77
2018-12-13T17:53:12.716Z,11.90
2018-12-13T17:55:40.241Z,12.17
2018-12-13T17:58:07.808Z,10.40
2018-12-13T18:00:35.386Z,10.70
2018-12-13T18:03:02.951Z,9.70
2018-12-13T18:05:30.510Z,9.90
2018-12-13T18:07:58.064Z,11.10
2018-12-13T18:10:29.386Z,10.60
2018-12-13T18:12:55.273Z,11.57
2018-12-13T18:15:22.873Z,10.93
2018-12-13T18:17:50.523Z,11.13
2018-12-13T18:20:18.082Z,11.77
2018-12-13T18:22:45.662Z,10.43
2018-12-13T18:25:13.205Z,12.00
2018-12-13T18:27:40.790Z,11.20
2018-12-13T18:30:08.427Z,9.77
2018-12-13T18:32:37.008Z,11.67
2018-12-13T18:35:05.462Z,9.87
2018-12-13T18:37:33.010Z,10.27
2018-12-13T18:40:00.571Z,10.50
2018-12-13T18:42:28.125Z,9.97
2018-12-13T18:44:55.683Z,10.17
2018-12-13T18:47:23.253Z,10.53
2018-12-13T18:49:50.872Z,11.03
2018-12-13T18:52:18.425Z,12.27
2018-12-13T18:54:46.032Z,16.30
2018-12-13T18:57:13.607Z,13.20
2018-12-13T18:59:41.226Z,8.43
2018-12-13T19:02:08.831Z,9.37
2018-12-13T19:04:36.471Z,9.20
2018-12-13T19:07:04.105Z,15.37
2018-12-13T19:09:31.698Z,10.67
2018-12-13T19:11:59.241Z,10.30
2018-12-13T19:14:26.840Z,8.40
2018-12-13T19:16:54.606Z,10.00
2018-12-13T19:19:22.193Z,8.60
2018-12-13T19:21:49.922Z,10.97
2018-12-13T19:24:17.676Z,9.67
2018-12-13T19:26:45.202Z,8.27
2018-12-13T19:29:12.761Z,9.60
2018-12-13T19:31:40.470Z,11.30
2018-12-13T19:34:08.089Z,9.67
2018-12-13T19:36:35.622Z,10.47
2018-12-13T19:39:05.339Z,9.43
2018-12-13T19:41:32.941Z,8.60
2018-12-13T19:44:00.606Z,8.80
2018-12-13T19:46:28.208Z,8.37
2018-12-13T19:48:55.747Z,8.77
2018-12-13T19:51:23.353Z,9.97
2018-12-13T19:53:50.931Z,8.83
2018-12-13T19:56:18.653Z,7.40
2018-12-13T19:58:46.341Z,7.87
2018-12-13T20:01:14.070Z,7.87
2018-12-13T20:03:41.609Z,7.87
2018-12-13T20:06:09.296Z,9.40
2018-12-13T20:08:36.815Z,10.40
2018-12-13T20:11:04.456Z,8.50
2018-12-13T20:13:32.026Z,8.53
2018-12-13T20:15:59.654Z,8.80
2018-12-13T20:18:27.260Z,9.40
2018-12-13T20:20:54.823Z,9.30
2018-12-13T20:23:22.411Z,9.77
2018-12-13T20:25:50.274Z,9.47
2018-12-13T20:28:17.960Z,9.40
2018-12-13T20:30:45.505Z,7.63
2018-12-13T20:33:13.223Z,8.90
2018-12-13T20:35:40.827Z,9.47
2018-12-13T20:38:08.438Z,9.67
2018-12-13T20:40:35.971Z,8.00
2018-12-13T20:43:03.609Z,9.93
2018-12-13T20:45:31.204Z,10.57
2018-12-13T20:47:58.765Z,10.10
2018-12-13T20:50:26.420Z,10.40
2018-12-13T20:52:54.090Z,9.43
2018-12-13T20:55:21.716Z,11.20
2018-12-13T20:57:49.341Z,10.23
2018-12-13T21:00:17.027Z,9.43
2018-12-13T21:02:44.606Z,10.50
2018-12-13T21:07:40.762Z,9.60
2018-12-13T21:10:08.578Z,11.10
2018-12-13T21:12:36.156Z,10.93
2018-12-13T21:15:04.605Z,11.40
2018-12-13T21:17:32.170Z,9.03
2018-12-13T21:19:59.703Z,9.00
2018-12-13T21:22:27.252Z,8.20
2018-12-13T21:24:54.881Z,10.13
2018-12-13T21:27:23.447Z,10.80
2018-12-13T21:29:51.103Z,9.33
2018-12-13T21:32:18.630Z,9.37
2018-12-13T21:34:46.293Z,9.30
2018-12-13T21:37:13.883Z,10.27
2018-12-13T21:39:41.469Z,9.50
2018-12-13T21:42:09.097Z,10.10
2018-12-13T21:44:36.666Z,9.47
2018-12-13T21:47:04.204Z,10.70
2018-12-13T21:49:31.793Z,9.30
2018-12-13T21:51:59.314Z,10.60
2018-12-13T21:54:26.874Z,10.17
2018-12-13T21:56:54.773Z,10.20
2018-12-13T21:59:22.298Z,9.70
2018-12-13T22:01:49.897Z,10.13
2018-12-13T22:04:17.571Z,9.33
2018-12-13T22:06:45.126Z,10.30
2018-12-13T22:09:12.715Z,10.00
2018-12-13T22:11:40.270Z,11.30
2018-12-13T22:14:07.798Z,11.33
2018-12-13T22:16:35.428Z,9.83
2018-12-13T22:19:02.988Z,10.00
2018-12-13T22:21:30.612Z,10.37
2018-12-13T22:23:58.268Z,9.50
2018-12-13T22:26:26.093Z,8.83
2018-12-13T22:28:53.710Z,10.37
2018-12-13T22:31:21.390Z,9.77
2018-12-13T22:33:48.920Z,9.47
2018-12-13T22:36:16.611Z,8.80
2018-12-13T22:38:44.311Z,9.10
2018-12-13T22:41:11.864Z,9.20
2018-12-13T22:43:39.395Z,9.70
2018-12-13T22:46:07.148Z,9.70
2018-12-13T22:48:34.692Z,9.23
2018-12-13T22:51:02.390Z,9.60
2018-12-13T22:53:29.972Z,10.23
2018-12-13T22:55:57.638Z,10.63
2018-12-13T22:58:25.179Z,10.03
2018-12-13T23:00:52.738Z,8.90
2018-12-13T23:03:20.406Z,11.30
2018-12-13T23:05:48.135Z,9.93
2018-12-13T23:08:15.714Z,11.70
2018-12-13T23:10:43.304Z,9.23
2018-12-13T23:13:10.994Z,10.90
2018-12-13T23:15:38.518Z,10.20
2018-12-13T23:18:06.074Z,9.73
2018-12-13T23:20:33.620Z,10.80
2018-12-13T23:23:01.177Z,9.20
2018-12-13T23:25:28.747Z,9.73
2018-12-13T23:27:56.350Z,10.00
2018-12-13T23:30:23.914Z,10.53
2018-12-13T23:32:51.470Z,9.47
2018-12-13T23:35:18.995Z,9.90
2018-12-13T23:37:46.534Z,9.87
2018-12-13T23:40:14.185Z,11.27
2018-12-13T23:42:41.713Z,10.67
2018-12-13T23:45:09.390Z,10.27
2018-12-13T23:47:36.898Z,9.57
2018-12-13T23:50:05.196Z,10.50
2018-12-13T23:52:32.723Z,10.33
2018-12-13T23:55:00.407Z,10.10
2018-12-13T23:57:27.957Z,11.30
2018-12-13T23:59:55.535Z,11.13
